• Join FlightAware (Why Join?)
  • Login
  • US Flag 
12:27PM EDT


 

Airport Tracker/Info


-or-


 

Live Flight TrackerFlight Track Log ✈ TYR843 ✈ 01-Sep-2013 ✈ LOWW / VIE - LATI / TIA

Flight Track Log - Related Links

Times and Time Zones

All times are in EDT time to prevent confusion due to time zone crossing. See the TYR843 flight status page for this flight to view local times or setup timezone preferences in your user account.

Time Position Orientation Groundspeed Altitude Reporting Facility
EDT Latitude Longitude Course Direction KTS MPH feet Rate Location/Type
05:37PM 46.9664 17.1658 160° South  Level Estimated
05:38PM 46.8622 17.2187 161° South  Level Estimated
05:39PM 46.7580 17.2715 161° South  Level Estimated
05:40PM 46.6539 17.3240 161° South  Level Estimated
05:41PM 46.5496 17.3763 161° South  Level Estimated
05:42PM 46.4454 17.4284 161° South  Level Estimated
05:43PM 46.3411 17.4803 161° South  Level Estimated
05:44PM 46.2368 17.5320 161° South  Level Estimated
05:45PM 46.1325 17.5835 161° South  Level Estimated
05:46PM 46.0282 17.6348 161° South  Level Estimated
05:47PM 45.9238 17.6860 161° South  Level Estimated
05:48PM 45.8195 17.7369 161° South  Level Estimated
05:49PM 45.7151 17.7877 161° South  Level Estimated
05:50PM 45.6106 17.8382 161° South  Level Estimated
05:51PM 45.5062 17.8886 161° South  Level Estimated
05:52PM 45.4017 17.9388 161° South  Level Estimated
05:53PM 45.2972 17.9888 161° South  Level Estimated
05:54PM 45.1927 18.0386 161° South  Level Estimated
05:55PM 45.0882 18.0882 161° South  Level Estimated
05:56PM 44.9836 18.1377 162° South  Level Estimated
05:57PM 44.8791 18.1869 162° South  Level Estimated
05:58PM 44.7745 18.2360 162° South  Level Estimated
05:59PM 44.6698 18.2849 162° South  Level Estimated
06:00PM 44.5652 18.3337 162° South  Level Estimated
06:01PM 44.4605 18.3822 162° South  Level Estimated
06:02PM 44.3559 18.4306 162° South  Level Estimated
06:03PM 44.2512 18.4788 162° South  Level Estimated
06:04PM 44.1464 18.5269 162° South  Level Estimated
06:05PM 44.0417 18.5748 162° South  Level Estimated
06:06PM 43.9369 18.6224 162° South  Level Estimated
06:07PM 43.8322 18.6700 162° South  Level Estimated
06:08PM 43.7274 18.7174 162° South  Level Estimated
06:09PM 43.6225 18.7646 162° South  Level Estimated
06:10PM 43.5177 18.8116 162° South  Level Estimated
06:11PM 43.4128 18.8585 162° South  Level Estimated
06:12PM 43.3080 18.9052 162° South  Level Estimated
06:13PM 43.2031 18.9517 162° South  Level Estimated
06:14PM 43.0981 18.9981 162° South  Level Estimated
06:15PM 42.9932 19.0444 162° South  Level Estimated
06:16PM 42.8883 19.0905 162° South  Level Estimated
06:17PM 42.7833 19.1364 162° South  Level Estimated
06:18PM 42.6783 19.1821 162° South  Level Estimated
06:19PM 42.5733 19.2278 162° South  Level Estimated
06:20PM 42.4683 19.2732 162° South  Level Estimated
06:21PM 42.3632 19.3185 162° South  Level Estimated
06:22PM 42.2582 19.3637 162° South  Level Estimated
06:23PM 42.1531 19.4087 162° South  Level Estimated
06:24PM 42.0480 19.4535 162° South  Level Estimated
06:25PM 41.9429 19.4982 162° South  Level Estimated
06:26PM 41.8377 19.5428 162° South  Level Estimated
06:27PM 41.7326 19.5872 163° South  Level Estimated
06:28PM 41.6274 19.6315 163° South  Level Estimated
06:29PM 41.5223 19.6756 163° South  Level Estimated
06:30PM 41.4171 19.7196 163° South  Level Estimated
06:31PM 41.4147 19.7206 163° South  Level Estimated
06:32PM 41.4147 19.7206 21° North  Level Estimated
06:33PM 41.4147 19.7206 21° North  Level Estimated
06:34PM 41.4147 19.7206 21° North  Level Estimated
06:35PM 41.4147 19.7206 21° North  Level Estimated
06:36PM 41.4147 19.7206 21° North  Level Estimated
06:37PM 41.4147 19.7206 21° North  Level Estimated
06:38PM 41.4147 19.7206 21° North  Level Estimated
06:39PM 41.4147 19.7206 21° North  Level Estimated
06:40PM 41.4147 19.7206 21° North  Level Estimated
06:41PM 41.4147 19.7206 21° North  Level Estimated
06:42PM 41.4147 19.7206 21° North  Level Estimated
06:43PM 41.4147 19.7206 21° North  Level Estimated
06:44PM 41.4147 19.7206 21° North  Level Estimated
06:45PM 41.4147 19.7206 21° North  Level Estimated
06:46PM 41.4147 19.7206 21° North  Level Estimated